FLL weather

Fort Lauderdale Hollywood International Airport
Fort Lauderdale, Florida, United States

Public forecast

Using degrees Fahrenheit for public forecast. Weather courtesy of forecast.io.

Current aviation weather report (METAR) for Fort Lauderdale Hollywood International Airport

Retrieved 2020/05/27 08:53 UTC (43 minutes ago):

KFLL 270853Z 21005KT 10SM FEW040 SCT250 26/23 A2991 RMK AO2 SLP129 T02560233 56007

Aviation forecast (TAF) for Fort Lauderdale Hollywood International Airport

Retrieved 2020/05/27 06:28 UTC (3 hours ago):

TAF KFLL 270520Z 2706/2812 VRB05KT P6SM FEW025 SCT050 BKN250 FM271400 19010KT P6SM VCSH SCT030 SCT060 BKN120 FM271900 16011KT P6SM VCTS SCT025CB BKN050 FM280000 VRB05KT P6SM FEW025 SCT060 BKN120